Time,TemperatureF,DewpointF,PressureIn,WindDirection,WindDirectionDegrees,WindSpeedMPH,WindSpeedGustMPH,Humidity,HourlyPrecipIn,Conditions,Clouds,dailyrainin,SoftwareType,DateUTC
2013-04-18 00:00:00,40.8,36.9,30.32,SSW,208,0.0,0.0,86,0.00,,,0.00,Wunderground v.1.15,2013-04-18 04:00:00,
2013-04-18 00:05:00,40.8,36.9,30.32,SSW,208,0.0,0.0,86,0.00,,,0.00,Wunderground v.1.15,2013-04-18 04:05:00,
2013-04-18 00:10:00,40.7,37.1,30.33,SSW,208,0.0,0.0,87,0.00,,,0.00,Wunderground v.1.15,2013-04-18 04:10:00,
2013-04-18 00:15:00,40.5,36.9,30.33,SSW,208,0.0,0.0,87,0.00,,,0.00,Wunderground v.1.15,2013-04-18 04:15:00,
2013-04-18 00:20:00,40.1,36.5,30.33,SSW,208,0.0,0.0,87,0.00,,,0.00,Wunderground v.1.15,2013-04-18 04:20:00,
2013-04-18 00:25:00,40.0,36.7,30.34,SSW,208,0.0,0.0,88,0.00,,,0.00,Wunderground v.1.15,2013-04-18 04:25:00,
2013-04-18 00:30:00,39.7,36.4,30.34,SSW,208,0.0,0.0,88,0.00,,,0.00,Wunderground v.1.15,2013-04-18 04:30:00,
2013-04-18 00:35:00,39.5,36.2,30.34,SW,218,0.0,0.0,88,0.00,,,0.00,Wunderground v.1.15,2013-04-18 04:35:00,
2013-04-18 00:40:00,39.5,36.5,30.34,SW,218,0.0,0.0,89,0.00,,,0.00,Wunderground v.1.15,2013-04-18 04:40:00,
2013-04-18 00:45:00,39.3,36.3,30.35,SW,218,0.0,0.0,89,0.00,,,0.00,Wunderground v.1.15,2013-04-18 04:45:00,
2013-04-18 00:55:00,38.9,36.2,30.35,SW,217,0.0,0.0,90,0.00,,,0.00,Wunderground v.1.15,2013-04-18 04:55:00,
2013-04-18 01:00:00,38.8,36.1,30.35,SW,217,0.0,0.0,90,0.00,,,0.00,Wunderground v.1.15,2013-04-18 05:00:00,
2013-04-18 01:10:00,38.5,35.8,30.35,SW,218,0.0,0.0,90,0.00,,,0.00,Wunderground v.1.15,2013-04-18 05:10:00,
2013-04-18 01:15:00,38.3,35.6,30.35,SW,218,0.0,0.0,90,0.00,,,0.00,Wunderground v.1.15,2013-04-18 05:15:00,
2013-04-18 01:20:00,38.1,35.4,30.35,SW,218,0.0,0.0,90,0.00,,,0.00,Wunderground v.1.15,2013-04-18 05:20:00,
2013-04-18 01:30:00,37.8,35.4,30.34,SW,218,0.0,0.0,91,0.00,,,0.00,Wunderground v.1.15,2013-04-18 05:30:00,
2013-04-18 01:35:00,37.6,35.2,30.35,SW,218,0.0,0.0,91,0.00,,,0.00,Wunderground v.1.15,2013-04-18 05:35:00,
2013-04-18 01:40:00,37.5,35.1,30.34,SW,218,0.0,0.0,91,0.00,,,0.00,Wunderground v.1.15,2013-04-18 05:40:00,
2013-04-18 01:45:00,37.3,35.2,30.35,SW,218,0.0,0.0,92,0.00,,,0.00,Wunderground v.1.15,2013-04-18 05:45:00,
2013-04-18 01:50:00,37.3,35.2,30.34,SW,218,0.0,0.0,92,0.00,,,0.00,Wunderground v.1.15,2013-04-18 05:50:00,
2013-04-18 01:55:00,37.0,34.9,30.34,SW,218,0.0,0.0,92,0.00,,,0.00,Wunderground v.1.15,2013-04-18 05:55:00,
2013-04-18 02:05:00,36.9,35.1,30.34,SW,218,0.0,0.0,93,0.00,,,0.00,Wunderground v.1.15,2013-04-18 06:05:00,
2013-04-18 02:10:00,36.8,34.7,30.34,SW,218,0.0,0.0,92,0.00,,,0.00,Wunderground v.1.15,2013-04-18 06:10:00,
2013-04-18 02:15:00,36.6,34.8,30.34,SW,218,0.0,0.0,93,0.00,,,0.00,Wunderground v.1.15,2013-04-18 06:15:00,
2013-04-18 02:20:00,36.7,34.9,30.34,SW,218,0.0,0.0,93,0.00,,,0.00,Wunderground v.1.15,2013-04-18 06:20:00,
2013-04-18 02:25:00,36.4,34.6,30.33,SW,218,0.0,0.0,93,0.00,,,0.00,Wunderground v.1.15,2013-04-18 06:25:00,
2013-04-18 02:30:00,36.3,34.5,30.33,SW,219,0.0,0.0,93,0.00,,,0.00,Wunderground v.1.15,2013-04-18 06:30:00,
2013-04-18 02:40:00,36.0,34.2,30.33,SW,218,0.0,0.0,93,0.00,,,0.00,Wunderground v.1.15,2013-04-18 06:40:00,
2013-04-18 02:45:00,35.9,34.1,30.33,SW,219,0.0,0.0,93,0.00,,,0.00,Wunderground v.1.15,2013-04-18 06:45:00,
2013-04-18 02:50:00,35.8,34.2,30.33,SW,218,0.0,0.0,94,0.00,,,0.00,Wunderground v.1.15,2013-04-18 06:50:00,
2013-04-18 02:55:00,35.6,34.0,30.33,SW,218,0.0,0.0,94,0.00,,,0.00,Wunderground v.1.15,2013-04-18 06:55:00,
2013-04-18 03:00:00,35.4,33.8,30.33,SW,218,0.0,0.0,94,0.00,,,0.00,Wunderground v.1.15,2013-04-18 07:00:00,
2013-04-18 03:10:00,35.3,33.7,30.34,SW,218,0.0,0.0,94,0.00,,,0.00,Wunderground v.1.15,2013-04-18 07:10:00,
2013-04-18 03:15:00,35.4,33.8,30.35,SW,218,0.0,0.0,94,0.00,,,0.00,Wunderground v.1.15,2013-04-18 07:15:00,
2013-04-18 03:20:00,35.2,33.6,30.35,SW,219,0.0,0.0,94,0.00,,,0.00,Wunderground v.1.15,2013-04-18 07:20:00,
2013-04-18 03:25:00,35.0,33.4,30.36,WSW,257,0.0,1.0,94,0.00,,,0.00,Wunderground v.1.15,2013-04-18 07:25:00,
2013-04-18 03:30:00,34.9,33.3,30.36,WSW,257,0.0,0.0,94,0.00,,,0.00,Wunderground v.1.15,2013-04-18 07:30:00,
2013-04-18 03:35:00,34.9,33.3,30.37,WSW,257,0.0,0.0,94,0.00,,,0.00,Wunderground v.1.15,2013-04-18 07:35:00,
2013-04-18 03:40:00,34.8,33.2,30.37,WSW,257,0.0,0.0,94,0.00,,,0.00,Wunderground v.1.15,2013-04-18 07:40:00,
2013-04-18 03:45:00,34.7,33.2,30.37,WSW,257,0.0,0.0,94,0.00,,,0.00,Wunderground v.1.15,2013-04-18 07:45:00,
2013-04-18 03:55:00,34.5,33.0,30.37,WSW,257,0.0,0.0,94,0.00,,,0.00,Wunderground v.1.15,2013-04-18 07:55:00,
2013-04-18 04:00:00,34.3,32.8,30.37,WSW,257,0.0,0.0,94,0.00,,,0.00,Wunderground v.1.15,2013-04-18 08:00:00,
2013-04-18 04:10:00,34.3,33.0,30.37,WSW,257,0.0,0.0,95,0.00,,,0.00,Wunderground v.1.15,2013-04-18 08:10:00,
2013-04-18 04:15:00,34.3,33.0,30.37,WSW,257,0.0,0.0,95,0.00,,,0.00,Wunderground v.1.15,2013-04-18 08:15:00,
2013-04-18 04:20:00,34.3,33.0,30.36,WSW,257,0.0,0.0,95,0.00,,,0.00,Wunderground v.1.15,2013-04-18 08:20:00,
2013-04-18 04:30:00,34.1,32.8,30.35,WSW,257,0.0,0.0,95,0.00,,,0.00,Wunderground v.1.15,2013-04-18 08:30:00,
2013-04-18 04:35:00,33.9,32.6,30.36,WSW,257,0.0,0.0,95,0.00,,,0.00,Wunderground v.1.15,2013-04-18 08:35:00,
2013-04-18 04:40:00,33.8,32.5,30.36,WSW,257,0.0,0.0,95,0.00,,,0.00,Wunderground v.1.15,2013-04-18 08:40:00,
2013-04-18 04:45:00,33.6,32.3,30.36,WSW,257,0.0,0.0,95,0.00,,,0.00,Wunderground v.1.15,2013-04-18 08:45:00,
2013-04-18 04:50:00,33.5,32.2,30.36,WSW,257,0.0,0.0,95,0.00,,,0.00,Wunderground v.1.15,2013-04-18 08:50:00,
2013-04-18 04:55:00,33.4,32.1,30.36,WSW,257,0.0,0.0,95,0.00,,,0.00,Wunderground v.1.15,2013-04-18 08:55:00,
2013-04-18 05:00:00,33.3,32.0,30.36,WSW,257,0.0,0.0,95,0.00,,,0.00,Wunderground v.1.15,2013-04-18 09:00:00,
2013-04-18 05:10:00,33.2,31.9,30.37,WSW,257,0.0,0.0,95,0.00,,,0.00,Wunderground v.1.15,2013-04-18 09:10:00,
2013-04-18 05:15:00,33.1,31.8,30.37,WSW,257,0.0,0.0,95,0.00,,,0.00,Wunderground v.1.15,2013-04-18 09:15:00,
2013-04-18 05:20:00,33.1,31.8,30.37,WSW,257,0.0,0.0,95,0.00,,,0.00,Wunderground v.1.15,2013-04-18 09:20:00,
2013-04-18 05:25:00,32.9,31.6,30.37,WSW,257,0.0,0.0,95,0.00,,,0.00,Wunderground v.1.15,2013-04-18 09:25:00,
2013-04-18 05:30:00,32.8,31.5,30.37,WSW,257,0.0,0.0,95,0.00,,,0.00,Wunderground v.1.15,2013-04-18 09:30:00,
2013-04-18 05:35:00,32.9,31.6,30.37,WSW,257,0.0,0.0,95,0.00,,,0.00,Wunderground v.1.15,2013-04-18 09:35:00,
2013-04-18 05:45:00,32.9,31.9,30.37,WSW,257,0.0,0.0,96,0.00,,,0.00,Wunderground v.1.15,2013-04-18 09:45:00,
2013-04-18 05:50:00,32.7,31.7,30.37,WSW,257,0.0,0.0,96,0.00,,,0.00,Wunderground v.1.15,2013-04-18 09:50:00,
2013-04-18 05:55:00,32.7,31.7,30.37,WSW,257,0.0,0.0,96,0.00,,,0.00,Wunderground v.1.15,2013-04-18 09:55:00,
2013-04-18 06:00:00,32.6,31.6,30.37,WSW,257,0.0,0.0,96,0.00,,,0.00,Wunderground v.1.15,2013-04-18 10:00:00,
2013-04-18 06:10:00,32.4,31.4,30.37,WSW,257,0.0,0.0,96,0.00,,,0.00,Wunderground v.1.15,2013-04-18 10:10:00,
2013-04-18 06:20:00,32.3,31.3,30.37,WSW,257,0.0,0.0,96,0.00,,,0.00,Wunderground v.1.15,2013-04-18 10:20:00,
2013-04-18 06:25:00,32.3,31.3,30.37,WSW,257,0.0,0.0,96,0.00,,,0.00,Wunderground v.1.15,2013-04-18 10:25:00,
2013-04-18 06:30:00,32.3,31.3,30.37,WSW,257,0.0,0.0,96,0.00,,,0.00,Wunderground v.1.15,2013-04-18 10:30:00,
2013-04-18 06:35:00,32.3,31.3,30.38,WSW,257,0.0,0.0,96,0.00,,,0.00,Wunderground v.1.15,2013-04-18 10:35:00,
2013-04-18 06:40:00,32.4,31.4,30.38,WSW,257,0.0,0.0,96,0.00,,,0.00,Wunderground v.1.15,2013-04-18 10:40:00,
2013-04-18 06:45:00,32.5,31.5,30.38,WSW,257,0.0,0.0,96,0.00,,,0.00,Wunderground v.1.15,2013-04-18 10:45:00,
2013-04-18 06:55:00,32.8,31.8,30.38,WSW,257,0.0,0.0,96,0.00,,,0.00,Wunderground v.1.15,2013-04-18 10:55:00,
2013-04-18 07:00:00,33.2,32.2,30.38,WSW,257,0.0,0.0,96,0.00,,,0.00,Wunderground v.1.15,2013-04-18 11:00:00,
2013-04-18 07:10:00,33.9,32.9,30.38,WSW,257,0.0,0.0,96,0.00,,,0.00,Wunderground v.1.15,2013-04-18 11:10:00,
2013-04-18 07:15:00,34.3,33.3,30.39,WSW,257,0.0,0.0,96,0.00,,,0.00,Wunderground v.1.15,2013-04-18 11:15:00,
2013-04-18 07:20:00,34.7,33.9,30.39,WSW,257,0.0,0.0,97,0.00,,,0.00,Wunderground v.1.15,2013-04-18 11:20:00,
2013-04-18 07:30:00,35.7,34.9,30.39,WSW,257,0.0,0.0,97,0.00,,,0.00,Wunderground v.1.15,2013-04-18 11:30:00,
2013-04-18 07:35:00,36.2,35.4,30.39,WSW,257,0.0,0.0,97,0.00,,,0.00,Wunderground v.1.15,2013-04-18 11:35:00,
2013-04-18 07:40:00,36.7,35.9,30.39,WSW,257,0.0,0.0,97,0.00,,,0.00,Wunderground v.1.15,2013-04-18 11:40:00,
2013-04-18 07:45:00,37.2,36.4,30.39,WSW,257,0.0,0.0,97,0.00,,,0.00,Wunderground v.1.15,2013-04-18 11:45:00,
2013-04-18 07:50:00,37.7,36.9,30.39,WSW,258,0.0,0.0,97,0.00,,,0.00,Wunderground v.1.15,2013-04-18 11:50:00,
2013-04-18 08:00:00,39.0,38.2,30.40,WSW,257,0.0,0.0,97,0.00,,,0.00,Wunderground v.1.15,2013-04-18 12:00:00,
2013-04-18 08:10:00,40.3,39.3,30.39,WSW,257,0.0,0.0,96,0.00,,,0.00,Wunderground v.1.15,2013-04-18 12:10:00,
2013-04-18 08:15:00,41.7,40.6,30.39,South,180,0.0,0.0,96,0.00,,,0.00,Wunderground v.1.15,2013-04-18 12:15:00,
2013-04-18 08:20:00,42.7,40.5,30.39,South,180,0.0,0.0,92,0.00,,,0.00,Wunderground v.1.15,2013-04-18 12:20:00,
2013-04-18 08:25:00,43.2,40.8,30.39,South,180,0.0,0.0,91,0.00,,,0.00,Wunderground v.1.15,2013-04-18 12:25:00,
2013-04-18 08:30:00,44.0,41.0,30.39,SSE,159,0.0,0.0,89,0.00,,,0.00,Wunderground v.1.15,2013-04-18 12:30:00,
2013-04-18 08:40:00,46.7,41.5,30.39,SSE,158,0.0,0.0,82,0.00,,,0.00,Wunderground v.1.15,2013-04-18 12:40:00,
2013-04-18 08:45:00,47.8,41.3,30.39,SE,124,1.0,3.0,78,0.00,,,0.00,Wunderground v.1.15,2013-04-18 12:45:00,
2013-04-18 08:55:00,49.4,38.9,30.39,ESE,116,3.0,4.0,67,0.00,,,0.00,Wunderground v.1.15,2013-04-18 12:55:00,
2013-04-18 09:00:00,50.1,39.9,30.39,SE,132,3.0,3.0,68,0.00,,,0.00,Wunderground v.1.15,2013-04-18 13:00:00,
2013-04-18 09:10:00,51.6,39.4,30.38,SE,128,3.0,3.0,63,0.00,,,0.00,Wunderground v.1.15,2013-04-18 13:10:00,
2013-04-18 09:15:00,51.8,37.9,30.38,SSE,149,3.0,3.0,59,0.00,,,0.00,Wunderground v.1.15,2013-04-18 13:15:00,
2013-04-18 09:20:00,52.1,36.4,30.38,South,174,4.0,4.0,55,0.00,,,0.00,Wunderground v.1.15,2013-04-18 13:20:00,
2013-04-18 09:25:00,52.7,37.0,30.38,SE,139,4.0,4.0,55,0.00,,,0.00,Wunderground v.1.15,2013-04-18 13:25:00,
2013-04-18 09:30:00,53.2,35.5,30.38,SSE,155,5.0,7.0,51,0.00,,,0.00,Wunderground v.1.15,2013-04-18 13:30:00,
2013-04-18 09:40:00,53.5,36.8,30.38,SSE,157,5.0,7.0,53,0.00,,,0.00,Wunderground v.1.15,2013-04-18 13:40:00,
2013-04-18 09:45:00,54.2,36.5,30.38,SE,131,5.0,7.0,51,0.00,,,0.00,Wunderground v.1.15,2013-04-18 13:45:00,
2013-04-18 09:50:00,54.2,36.9,30.38,SE,129,7.0,7.0,52,0.00,,,0.00,Wunderground v.1.15,2013-04-18 13:50:00,
2013-04-18 10:00:00,54.9,37.1,30.37,ESE,114,5.0,5.0,51,0.00,,,0.00,Wunderground v.1.15,2013-04-18 14:00:00,
2013-04-18 10:10:00,55.6,35.7,30.38,SSE,156,5.0,7.0,47,0.00,,,0.00,Wunderground v.1.15,2013-04-18 14:10:00,
2013-04-18 10:20:00,56.2,34.6,30.38,SSE,151,6.0,6.0,44,0.00,,,0.00,Wunderground v.1.15,2013-04-18 14:20:00,
2013-04-18 10:25:00,56.5,34.3,30.37,ESE,120,6.0,6.0,43,0.00,,,0.00,Wunderground v.1.15,2013-04-18 14:25:00,
2013-04-18 10:30:00,56.9,34.6,30.37,ESE,121,6.0,7.0,43,0.00,,,0.00,Wunderground v.1.15,2013-04-18 14:30:00,
2013-04-18 10:40:00,57.2,33.7,30.38,ESE,122,8.0,8.0,41,0.00,,,0.00,Wunderground v.1.15,2013-04-18 14:40:00,
2013-04-18 10:45:00,57.7,33.5,30.37,South,187,6.0,8.0,40,0.00,,,0.00,Wunderground v.1.15,2013-04-18 14:45:00,
2013-04-18 10:50:00,58.3,34.1,30.38,SE,129,6.0,6.0,40,0.00,,,0.00,Wunderground v.1.15,2013-04-18 14:50:00,
2013-04-18 11:00:00,58.7,32.5,30.37,SW,226,7.0,7.0,37,0.00,,,0.00,Wunderground v.1.15,2013-04-18 15:00:00,
2013-04-18 11:10:00,58.6,33.0,30.37,SE,130,8.0,8.0,38,0.00,,,0.00,Wunderground v.1.15,2013-04-18 15:10:00,
2013-04-18 11:20:00,58.9,31.3,30.38,SSE,148,7.0,7.0,35,0.00,,,0.00,Wunderground v.1.15,2013-04-18 15:20:00,
2013-04-18 11:25:00,58.9,32.0,30.37,SSE,159,7.0,7.0,36,0.00,,,0.00,Wunderground v.1.15,2013-04-18 15:25:00,
2013-04-18 11:30:00,58.6,32.4,30.38,SSE,159,8.0,8.0,37,0.00,,,0.00,Wunderground v.1.15,2013-04-18 15:30:00,
2013-04-18 11:40:00,58.3,34.1,30.37,SE,145,5.0,5.0,40,0.00,,,0.00,Wunderground v.1.15,2013-04-18 15:40:00,
2013-04-18 11:45:00,58.3,31.4,30.37,SSE,159,5.0,5.0,36,0.00,,,0.00,Wunderground v.1.15,2013-04-18 15:45:00,
2013-04-18 11:55:00,58.3,32.8,30.37,SSE,151,5.0,6.0,38,0.00,,,0.00,Wunderground v.1.15,2013-04-18 15:55:00,
2013-04-18 12:00:00,58.3,34.1,30.37,SSE,161,6.0,6.0,40,0.00,,,0.00,Wunderground v.1.15,2013-04-18 16:00:00,
2013-04-18 12:10:00,57.8,32.3,30.36,SE,138,7.0,8.0,38,0.00,,,0.00,Wunderground v.1.15,2013-04-18 16:10:00,
2013-04-18 12:15:00,57.6,32.2,30.36,SSE,165,7.0,8.0,38,0.00,,,0.00,Wunderground v.1.15,2013-04-18 16:15:00,
2013-04-18 12:20:00,57.5,33.3,30.36,South,188,7.0,7.0,40,0.00,,,0.00,Wunderground v.1.15,2013-04-18 16:20:00,
2013-04-18 12:25:00,58.0,32.5,30.36,SSE,158,6.0,8.0,38,0.00,,,0.00,Wunderground v.1.15,2013-04-18 16:25:00,
2013-04-18 12:35:00,58.6,32.4,30.35,SE,142,6.0,6.0,37,0.00,,,0.00,Wunderground v.1.15,2013-04-18 16:35:00,
2013-04-18 12:40:00,58.4,32.9,30.35,SSE,156,6.0,6.0,38,0.00,,,0.00,Wunderground v.1.15,2013-04-18 16:40:00,
2013-04-18 12:45:00,58.3,31.4,30.35,South,170,6.0,6.0,36,0.00,,,0.00,Wunderground v.1.15,2013-04-18 16:45:00,
2013-04-18 12:50:00,58.5,32.3,30.34,SE,141,6.0,6.0,37,0.00,,,0.00,Wunderground v.1.15,2013-04-18 16:50:00,
2013-04-18 12:55:00,58.4,31.5,30.34,SSW,198,6.0,6.0,36,0.00,,,0.00,Wunderground v.1.15,2013-04-18 16:55:00,
2013-04-18 13:00:00,58.8,32.6,30.34,SSE,155,6.0,7.0,37,0.00,,,0.00,Wunderground v.1.15,2013-04-18 17:00:00,
2013-04-18 13:10:00,58.2,30.7,30.34,SE,141,9.0,9.0,35,0.00,,,0.00,Wunderground v.1.15,2013-04-18 17:10:00,
2013-04-18 13:15:00,57.7,30.2,30.33,South,177,9.0,9.0,35,0.00,,,0.00,Wunderground v.1.15,2013-04-18 17:15:00,
2013-04-18 13:20:00,57.4,30.6,30.33,ESE,122,8.0,8.0,36,0.00,,,0.00,Wunderground v.1.15,2013-04-18 17:20:00,
2013-04-18 13:30:00,57.4,30.6,30.33,SE,146,7.0,8.0,36,0.00,,,0.00,Wunderground v.1.15,2013-04-18 17:30:00,
2013-04-18 13:35:00,57.4,31.3,30.33,South,191,6.0,8.0,37,0.00,,,0.00,Wunderground v.1.15,2013-04-18 17:35:00,
2013-04-18 13:40:00,57.3,30.5,30.33,SSE,157,5.0,8.0,36,0.00,,,0.00,Wunderground v.1.15,2013-04-18 17:40:00,
2013-04-18 13:50:00,57.4,30.6,30.34,SSW,193,5.0,6.0,36,0.00,,,0.00,Wunderground v.1.15,2013-04-18 17:50:00,
2013-04-18 13:55:00,57.5,31.4,30.33,SW,216,4.0,6.0,37,0.00,,,0.00,Wunderground v.1.15,2013-04-18 17:55:00,
2013-04-18 14:00:00,57.8,31.7,30.33,SE,145,4.0,7.0,37,0.00,,,0.00,Wunderground v.1.15,2013-04-18 18:00:00,
2013-04-18 14:10:00,57.1,33.0,30.33,SE,139,9.0,9.0,40,0.00,,,0.00,Wunderground v.1.15,2013-04-18 18:10:00,
2013-04-18 14:15:00,57.2,31.1,30.33,SSW,203,8.0,9.0,37,0.00,,,0.00,Wunderground v.1.15,2013-04-18 18:15:00,
2013-04-18 14:20:00,57.4,32.6,30.33,SSE,158,5.0,5.0,39,0.00,,,0.00,Wunderground v.1.15,2013-04-18 18:20:00,
2013-04-18 14:25:00,57.0,32.3,30.33,SSE,159,5.0,8.0,39,0.00,,,0.00,Wunderground v.1.15,2013-04-18 18:25:00,
2013-04-18 14:30:00,56.9,30.2,30.33,SSE,167,7.0,10.0,36,0.00,,,0.00,Wunderground v.1.15,2013-04-18 18:30:00,
2013-04-18 14:35:00,57.0,30.3,30.33,SE,139,6.0,12.0,36,0.00,,,0.00,Wunderground v.1.15,2013-04-18 18:35:00,
2013-04-18 14:45:00,57.1,30.4,30.33,SSE,166,6.0,6.0,36,0.00,,,0.00,Wunderground v.1.15,2013-04-18 18:45:00,
2013-04-18 14:50:00,56.8,30.1,30.33,South,186,7.0,7.0,36,0.00,,,0.00,Wunderground v.1.15,2013-04-18 18:50:00,
2013-04-18 14:55:00,56.7,31.4,30.33,SSE,160,7.0,13.0,38,0.00,,,0.00,Wunderground v.1.15,2013-04-18 18:55:00,
2013-04-18 15:00:00,56.6,31.3,30.32,SE,142,7.0,8.0,38,0.00,,,0.00,Wunderground v.1.15,2013-04-18 19:00:00,
2013-04-18 15:10:00,57.0,31.0,30.32,SSW,200,5.0,8.0,37,0.00,,,0.00,Wunderground v.1.15,2013-04-18 19:10:00,
2013-04-18 15:15:00,56.6,31.9,30.31,SSE,159,6.0,8.0,39,0.00,,,0.00,Wunderground v.1.15,2013-04-18 19:15:00,
2013-04-18 15:20:00,56.4,30.4,30.31,SSW,205,6.0,6.0,37,0.00,,,0.00,Wunderground v.1.15,2013-04-18 19:20:00,
2013-04-18 15:30:00,56.3,31.6,30.31,ESE,119,5.0,9.0,39,0.00,,,0.00,Wunderground v.1.15,2013-04-18 19:30:00,
2013-04-18 15:35:00,55.9,31.3,30.31,SSW,195,7.0,9.0,39,0.00,,,0.00,Wunderground v.1.15,2013-04-18 19:35:00,
2013-04-18 15:40:00,55.8,30.5,30.31,SE,139,8.0,8.0,38,0.00,,,0.00,Wunderground v.1.15,2013-04-18 19:40:00,
2013-04-18 15:50:00,56.2,32.2,30.31,SSE,163,6.0,6.0,40,0.00,,,0.00,Wunderground v.1.15,2013-04-18 19:50:00,
2013-04-18 15:55:00,56.0,33.2,30.30,SE,136,5.0,6.0,42,0.00,,,0.00,Wunderground v.1.15,2013-04-18 19:55:00,
2013-04-18 16:00:00,55.5,33.9,30.30,SE,145,6.0,7.0,44,0.00,,,0.00,Wunderground v.1.15,2013-04-18 20:00:00,
2013-04-18 16:10:00,55.0,35.7,30.29,SE,128,8.0,8.0,48,0.00,,,0.00,Wunderground v.1.15,2013-04-18 20:10:00,
2013-04-18 16:15:00,54.9,36.1,30.29,SE,144,7.0,8.0,49,0.00,,,0.00,Wunderground v.1.15,2013-04-18 20:15:00,
2013-04-18 16:20:00,54.9,37.1,30.29,SSE,148,6.0,10.0,51,0.00,,,0.00,Wunderground v.1.15,2013-04-18 20:20:00,
2013-04-18 16:30:00,55.0,37.7,30.28,SSW,201,4.0,4.0,52,0.00,,,0.00,Wunderground v.1.15,2013-04-18 20:30:00,
2013-04-18 16:35:00,55.0,38.2,30.28,SE,136,3.0,4.0,53,0.00,,,0.00,Wunderground v.1.15,2013-04-18 20:35:00,
2013-04-18 16:45:00,54.9,38.6,30.28,SSW,205,5.0,5.0,54,0.00,,,0.00,Wunderground v.1.15,2013-04-18 20:45:00,
2013-04-18 16:50:00,54.8,39.4,30.28,SSE,152,6.0,7.0,56,0.00,,,0.00,Wunderground v.1.15,2013-04-18 20:50:00,
2013-04-18 16:55:00,54.5,39.6,30.28,SSE,158,6.0,7.0,57,0.00,,,0.00,Wunderground v.1.15,2013-04-18 20:55:00,
2013-04-18 17:00:00,54.3,40.3,30.27,SE,131,6.0,6.0,59,0.00,,,0.00,Wunderground v.1.15,2013-04-18 21:00:00,
2013-04-18 17:10:00,54.3,40.3,30.27,SE,145,4.0,7.0,59,0.00,,,0.00,Wunderground v.1.15,2013-04-18 21:10:00,
2013-04-18 17:15:00,54.3,40.3,30.27,South,169,4.0,7.0,59,0.00,,,0.00,Wunderground v.1.15,2013-04-18 21:15:00,
2013-04-18 17:25:00,54.0,40.8,30.27,SSE,160,5.0,9.0,61,0.00,,,0.00,Wunderground v.1.15,2013-04-18 21:25:00,
2013-04-18 17:30:00,53.5,41.2,30.27,SSE,149,6.0,6.0,63,0.00,,,0.00,Wunderground v.1.15,2013-04-18 21:30:00,
2013-04-18 17:35:00,53.3,41.4,30.27,South,184,7.0,8.0,64,0.00,,,0.00,Wunderground v.1.15,2013-04-18 21:35:00,
2013-04-18 17:45:00,53.0,41.9,30.27,SE,144,6.0,8.0,66,0.00,,,0.00,Wunderground v.1.15,2013-04-18 21:45:00,
2013-04-18 17:50:00,52.9,42.6,30.27,ESE,114,6.0,6.0,68,0.00,,,0.00,Wunderground v.1.15,2013-04-18 21:50:00,
2013-04-18 18:00:00,52.5,42.6,30.27,SSE,158,7.0,7.0,69,0.00,,,0.00,Wunderground v.1.15,2013-04-18 22:00:00,
2013-04-18 18:10:00,52.4,42.9,30.26,SSE,156,5.0,5.0,70,0.00,,,0.00,Wunderground v.1.15,2013-04-18 22:10:00,
2013-04-18 18:15:00,52.4,43.3,30.25,SE,143,5.0,7.0,71,0.00,,,0.00,Wunderground v.1.15,2013-04-18 22:15:00,
2013-04-18 18:20:00,52.3,43.2,30.25,SE,130,6.0,8.0,71,0.00,,,0.00,Wunderground v.1.15,2013-04-18 22:20:00,
2013-04-18 18:25:00,52.2,43.1,30.25,SE,125,6.0,8.0,71,0.00,,,0.00,Wunderground v.1.15,2013-04-18 22:25:00,
2013-04-18 18:35:00,51.9,43.2,30.25,SSE,149,7.0,8.0,72,0.00,,,0.00,Wunderground v.1.15,2013-04-18 22:35:00,
2013-04-18 18:40:00,51.8,43.4,30.25,South,190,7.0,7.0,73,0.00,,,0.00,Wunderground v.1.15,2013-04-18 22:40:00,
2013-04-18 18:45:00,51.7,43.3,30.24,South,173,6.0,7.0,73,0.00,,,0.00,Wunderground v.1.15,2013-04-18 22:45:00,
2013-04-18 18:50:00,51.7,43.3,30.24,SE,139,5.0,5.0,73,0.00,,,0.00,Wunderground v.1.15,2013-04-18 22:50:00,
2013-04-18 18:55:00,51.7,43.7,30.24,SE,143,4.0,5.0,74,0.00,,,0.00,Wunderground v.1.15,2013-04-18 22:55:00,
2013-04-18 19:00:00,51.7,43.7,30.24,SE,136,4.0,4.0,74,0.00,,,0.00,Wunderground v.1.15,2013-04-18 23:00:00,
2013-04-18 19:10:00,51.6,43.6,30.25,SE,145,4.0,4.0,74,0.00,,,0.00,Wunderground v.1.15,2013-04-18 23:10:00,
2013-04-18 19:15:00,51.6,43.9,30.24,SSE,154,3.0,4.0,75,0.00,,,0.00,Wunderground v.1.15,2013-04-18 23:15:00,
2013-04-18 19:20:00,51.5,43.8,30.24,SE,142,3.0,4.0,75,0.00,,,0.00,Wunderground v.1.15,2013-04-18 23:20:00,
2013-04-18 19:25:00,51.4,43.7,30.24,SSE,156,4.0,4.0,75,0.00,,,0.00,Wunderground v.1.15,2013-04-18 23:25:00,
2013-04-18 19:30:00,51.3,44.0,30.24,SE,139,4.0,4.0,76,0.00,,,0.00,Wunderground v.1.15,2013-04-18 23:30:00,
2013-04-18 19:40:00,51.2,43.9,30.24,SSE,152,5.0,5.0,76,0.00,,,0.00,Wunderground v.1.15,2013-04-18 23:40:00,
2013-04-18 19:45:00,51.2,43.9,30.24,SSE,163,3.0,5.0,76,0.00,,,0.00,Wunderground v.1.15,2013-04-18 23:45:00,
2013-04-18 19:50:00,51.1,44.1,30.25,SSE,158,3.0,3.0,77,0.00,,,0.00,Wunderground v.1.15,2013-04-18 23:50:00,
2013-04-18 19:55:00,51.0,44.0,30.24,ESE,123,3.0,4.0,77,0.00,,,0.00,Wunderground v.1.15,2013-04-18 23:55:00,
2013-04-18 20:00:00,51.0,44.0,30.24,SSE,150,4.0,4.0,77,0.00,,,0.00,Wunderground v.1.15,2013-04-19 00:00:00,
2013-04-18 20:10:00,50.9,43.9,30.24,SSE,152,3.0,4.0,77,0.00,,,0.00,Wunderground v.1.15,2013-04-19 00:10:00,
2013-04-18 20:15:00,50.8,43.8,30.24,SSE,160,4.0,6.0,77,0.00,,,0.00,Wunderground v.1.15,2013-04-19 00:15:00,
2013-04-18 20:20:00,50.8,43.8,30.24,ESE,117,5.0,5.0,77,0.00,,,0.00,Wunderground v.1.15,2013-04-19 00:20:00,
2013-04-18 20:25:00,50.7,44.1,30.24,SSE,149,4.0,5.0,78,0.00,,,0.00,Wunderground v.1.15,2013-04-19 00:25:00,
2013-04-18 20:30:00,50.6,44.0,30.23,SSE,147,4.0,4.0,78,0.00,,,0.00,Wunderground v.1.15,2013-04-19 00:30:00,
2013-04-18 20:35:00,50.5,44.2,30.23,South,191,4.0,4.0,79,0.00,,,0.00,Wunderground v.1.15,2013-04-19 00:35:00,
2013-04-18 20:45:00,50.4,44.1,30.22,ESE,113,4.0,6.0,79,0.00,,,0.00,Wunderground v.1.15,2013-04-19 00:45:00,
2013-04-18 20:50:00,50.4,44.1,30.22,SE,145,4.0,4.0,79,0.00,,,0.00,Wunderground v.1.15,2013-04-19 00:50:00,
2013-04-18 20:55:00,50.4,44.1,30.22,SSE,160,4.0,4.0,79,0.00,,,0.00,Wunderground v.1.15,2013-04-19 00:55:00,
2013-04-18 21:00:00,50.5,44.2,30.22,SE,131,4.0,4.0,79,0.00,,,0.00,Wunderground v.1.15,2013-04-19 01:00:00,
2013-04-18 21:10:00,50.5,44.2,30.22,ESE,113,3.0,6.0,79,0.00,,,0.00,Wunderground v.1.15,2013-04-19 01:10:00,
2013-04-18 21:15:00,50.5,44.2,30.22,SE,128,4.0,6.0,79,0.00,,,0.00,Wunderground v.1.15,2013-04-19 01:15:00,
2013-04-18 21:20:00,50.5,44.6,30.21,SE,142,4.0,4.0,80,0.00,,,0.00,Wunderground v.1.15,2013-04-19 01:20:00,
2013-04-18 21:25:00,50.5,44.6,30.22,SE,128,3.0,4.0,80,0.00,,,0.00,Wunderground v.1.15,2013-04-19 01:25:00,
2013-04-18 21:30:00,50.5,44.6,30.22,SSE,164,3.0,4.0,80,0.00,,,0.00,Wunderground v.1.15,2013-04-19 01:30:00,
2013-04-18 21:40:00,50.5,44.9,30.21,ESE,115,3.0,3.0,81,0.00,,,0.00,Wunderground v.1.15,2013-04-19 01:40:00,
2013-04-18 21:45:00,50.6,45.0,30.20,SSE,147,3.0,4.0,81,0.00,,,0.00,Wunderground v.1.15,2013-04-19 01:45:00,
2013-04-18 21:50:00,50.6,45.0,30.20,SSE,147,4.0,4.0,81,0.00,,,0.00,Wunderground v.1.15,2013-04-19 01:50:00,
2013-04-18 21:55:00,50.6,45.0,30.20,SE,136,4.0,4.0,81,0.00,,,0.00,Wunderground v.1.15,2013-04-19 01:55:00,
2013-04-18 22:00:00,50.6,45.0,30.19,SE,146,4.0,4.0,81,0.00,,,0.00,Wunderground v.1.15,2013-04-19 02:00:00,
2013-04-18 22:10:00,50.6,45.3,30.20,SE,128,3.0,3.0,82,0.00,,,0.00,Wunderground v.1.15,2013-04-19 02:10:00,
2013-04-18 22:15:00,50.7,45.4,30.20,SSE,163,2.0,3.0,82,0.00,,,0.00,Wunderground v.1.15,2013-04-19 02:15:00,
2013-04-18 22:20:00,50.7,45.4,30.19,SE,142,1.0,1.0,82,0.00,,,0.00,Wunderground v.1.15,2013-04-19 02:20:00,
2013-04-18 22:25:00,50.8,45.5,30.19,SSW,194,1.0,1.0,82,0.00,,,0.00,Wunderground v.1.15,2013-04-19 02:25:00,
2013-04-18 22:30:00,50.8,45.8,30.19,SE,146,2.0,2.0,83,0.00,,,0.00,Wunderground v.1.15,2013-04-19 02:30:00,
2013-04-18 22:35:00,50.9,45.9,30.19,SE,126,2.0,2.0,83,0.00,,,0.00,Wunderground v.1.15,2013-04-19 02:35:00,
2013-04-18 22:45:00,50.9,45.9,30.18,SE,143,2.0,3.0,83,0.00,,,0.00,Wunderground v.1.15,2013-04-19 02:45:00,
2013-04-18 22:50:00,50.9,45.9,30.18,SE,143,3.0,3.0,83,0.00,,,0.00,Wunderground v.1.15,2013-04-19 02:50:00,
2013-04-18 22:55:00,51.0,46.0,30.17,SE,138,4.0,4.0,83,0.00,,,0.00,Wunderground v.1.15,2013-04-19 02:55:00,
2013-04-18 23:00:00,51.0,46.3,30.16,SSE,158,4.0,4.0,84,0.00,,,0.00,Wunderground v.1.15,2013-04-19 03:00:00,
2013-04-18 23:10:00,51.0,46.3,30.16,ESE,122,3.0,5.0,84,0.00,,,0.00,Wunderground v.1.15,2013-04-19 03:10:00,
2013-04-18 23:15:00,51.0,46.6,30.16,SE,134,4.0,5.0,85,0.00,,,0.00,Wunderground v.1.15,2013-04-19 03:15:00,
2013-04-18 23:20:00,51.1,47.1,30.15,SE,134,5.0,5.0,86,0.00,,,0.00,Wunderground v.1.15,2013-04-19 03:20:00,
2013-04-18 23:25:00,51.1,47.1,30.15,SE,134,5.0,5.0,86,0.00,,,0.00,Wunderground v.1.15,2013-04-19 03:25:00,
2013-04-18 23:30:00,51.1,47.4,30.15,SSE,154,5.0,6.0,87,0.00,,,0.00,Wunderground v.1.15,2013-04-19 03:30:00,
2013-04-18 23:35:00,51.1,47.4,30.14,ESE,117,5.0,6.0,87,0.00,,,0.00,Wunderground v.1.15,2013-04-19 03:35:00,
2013-04-18 23:40:00,51.1,47.4,30.14,SSE,155,5.0,6.0,87,0.00,,,0.00,Wunderground v.1.15,2013-04-19 03:40:00,
2013-04-18 23:50:00,51.1,47.7,30.14,ESE,121,4.0,5.0,88,0.00,,,0.00,Wunderground v.1.15,2013-04-19 03:50:00,
2013-04-18 23:55:00,51.2,48.1,30.14,SSE,155,4.0,5.0,89,0.00,,,0.00,Wunderground v.1.15,2013-04-19 03:55:00,